PPDSL SSMR-SSPG
Flight info
| Callsign | PPDSL |
|---|---|
| Flight time | N/A |
| Altitude | 95000 |
| Route | DCT 2528S05039W 2533S04953W/N0150VFR REA 2550S04903W/N180A055 2542S04844W DCT |
| Aircraft | C208/L-SDFGR/C |
Departure
| Time | N/A |
|---|---|
| Airport | Manoel Ribas Airport (SSMR) |
Arrival
| Time | 2026-04-14 21:09 |
|---|---|
| Airport | Paranaguá Airport (SSPG) |
| Time | Latitude | Longitude | Altitude | Speed | Heading |
|---|---|---|---|---|---|
| 2026-04-14 19:44 | -25.38759 | -51.51915 | 3476 ft | 0 kts | 120° |
| 2026-04-14 19:50 | -25.38764 | -51.51915 | 3478 ft | 3 kts | 212° |
| 2026-04-14 19:50 | -25.38763 | -51.51941 | 3478 ft | 4 kts | 282° |
| 2026-04-14 19:50 | -25.38758 | -51.51945 | 3478 ft | 0 kts | 339° |
| 2026-04-14 19:51 | -25.38727 | -51.51955 | 3478 ft | 9 kts | 338° |
| 2026-04-14 19:51 | -25.38678 | -51.51994 | 3478 ft | 8 kts | 294° |
| 2026-04-14 19:51 | -25.38698 | -51.52050 | 3477 ft | 10 kts | 241° |
| 2026-04-14 19:52 | -25.38734 | -51.52125 | 3476 ft | 13 kts | 243° |
| 2026-04-14 19:52 | -25.38783 | -51.52232 | 3473 ft | 18 kts | 243° |
| 2026-04-14 19:52 | -25.38849 | -51.52377 | 3470 ft | 24 kts | 244° |
| 2026-04-14 19:52 | -25.38929 | -51.52549 | 3468 ft | 24 kts | 248° |
| 2026-04-14 19:53 | -25.38978 | -51.52665 | 3467 ft | 17 kts | 239° |
| 2026-04-14 19:53 | -25.39034 | -51.52784 | 3466 ft | 17 kts | 243° |
| 2026-04-14 19:53 | -25.39088 | -51.52901 | 3466 ft | 15 kts | 243° |
| 2026-04-14 19:53 | -25.39131 | -51.52954 | 3465 ft | 3 kts | 285° |
| 2026-04-14 19:54 | -25.39112 | -51.52958 | 3465 ft | 3 kts | 62° |
| 2026-04-14 19:54 | -25.38818 | -51.52311 | 3473 ft | 85 kts | 65° |
| 2026-04-14 19:54 | -25.38543 | -51.51743 | 3637 ft | 84 kts | 63° |
| 2026-04-14 19:55 | -25.38266 | -51.51194 | 3870 ft | 81 kts | 66° |
| 2026-04-14 19:55 | -25.37989 | -51.50642 | 4040 ft | 81 kts | 66° |
| 2026-04-14 19:55 | -25.37772 | -51.50033 | 4174 ft | 87 kts | 79° |
| 2026-04-14 19:55 | -25.37784 | -51.49326 | 4232 ft | 98 kts | 97° |
| 2026-04-14 19:56 | -25.37827 | -51.48518 | 4196 ft | 115 kts | 94° |
| 2026-04-14 19:56 | -25.37899 | -51.47637 | 4391 ft | 113 kts | 95° |
| 2026-04-14 19:56 | -25.37954 | -51.46762 | 4612 ft | 115 kts | 94° |
| 2026-04-14 19:56 | -25.38023 | -51.45883 | 4826 ft | 115 kts | 95° |
| 2026-04-14 19:57 | -25.38063 | -51.44967 | 4996 ft | 121 kts | 92° |
| 2026-04-14 19:57 | -25.38111 | -51.44040 | 5212 ft | 121 kts | 93° |
| 2026-04-14 19:57 | -25.38192 | -51.43110 | 5380 ft | 122 kts | 96° |
| 2026-04-14 19:57 | -25.38504 | -51.42231 | 5567 ft | 126 kts | 118° |
| 2026-04-14 19:58 | -25.39045 | -51.41478 | 5747 ft | 125 kts | 123° |
| 2026-04-14 19:58 | -25.39557 | -51.40701 | 5980 ft | 125 kts | 123° |
| 2026-04-14 19:58 | -25.40085 | -51.39948 | 6140 ft | 126 kts | 124° |
| 2026-04-14 19:58 | -25.40628 | -51.39186 | 6327 ft | 127 kts | 124° |
| 2026-04-14 19:59 | -25.41169 | -51.38399 | 6518 ft | 129 kts | 122° |
| 2026-04-14 19:59 | -25.41722 | -51.37616 | 6650 ft | 129 kts | 124° |
| 2026-04-14 19:59 | -25.42278 | -51.36830 | 6796 ft | 130 kts | 124° |
| 2026-04-14 19:59 | -25.42837 | -51.36042 | 6964 ft | 131 kts | 124° |
| 2026-04-14 20:00 | -25.43394 | -51.35240 | 7101 ft | 132 kts | 124° |
| 2026-04-14 20:00 | -25.43939 | -51.34437 | 7274 ft | 131 kts | 123° |
| 2026-04-14 20:00 | -25.44490 | -51.33625 | 7415 ft | 132 kts | 124° |
| 2026-04-14 20:00 | -25.45044 | -51.32811 | 7543 ft | 133 kts | 124° |
| 2026-04-14 20:01 | -25.45596 | -51.31997 | 7701 ft | 132 kts | 123° |
| 2026-04-14 20:01 | -25.45974 | -51.31086 | 7786 ft | 131 kts | 95° |
| 2026-04-14 20:01 | -25.46087 | -51.30090 | 7922 ft | 131 kts | 97° |
| 2026-04-14 20:01 | -25.46205 | -51.29281 | 8031 ft | 132 kts | 97° |
| 2026-04-14 20:02 | -25.46336 | -51.28274 | 8168 ft | 133 kts | 94° |
| 2026-04-14 20:02 | -25.46405 | -51.27252 | 8309 ft | 134 kts | 92° |
| 2026-04-14 20:02 | -25.46479 | -51.26236 | 8434 ft | 135 kts | 94° |
| 2026-04-14 20:02 | -25.46556 | -51.25198 | 8573 ft | 136 kts | 92° |
| 2026-04-14 20:03 | -25.46619 | -51.24150 | 8694 ft | 137 kts | 92° |
| 2026-04-14 20:03 | -25.46657 | -51.23095 | 8832 ft | 137 kts | 91° |
| 2026-04-14 20:03 | -25.46687 | -51.22037 | 8951 ft | 138 kts | 90° |
| 2026-04-14 20:03 | -25.46719 | -51.20971 | 9076 ft | 139 kts | 91° |
| 2026-04-14 20:04 | -25.46751 | -51.19900 | 9196 ft | 140 kts | 91° |
| 2026-04-14 20:04 | -25.46783 | -51.18823 | 9316 ft | 140 kts | 91° |
| 2026-04-14 20:04 | -25.46816 | -51.17741 | 9450 ft | 141 kts | 91° |
| 2026-04-14 20:04 | -25.46848 | -51.16642 | 9522 ft | 146 kts | 91° |
| 2026-04-14 20:05 | -25.46880 | -51.15492 | 9531 ft | 152 kts | 91° |
| 2026-04-14 20:05 | -25.46913 | -51.14309 | 9534 ft | 156 kts | 91° |
| 2026-04-14 20:05 | -25.46946 | -51.13096 | 9534 ft | 159 kts | 91° |
| 2026-04-14 20:05 | -25.46979 | -51.11871 | 9535 ft | 159 kts | 91° |
| 2026-04-14 20:06 | -25.47001 | -51.11057 | 9534 ft | 160 kts | 91° |
| 2026-04-14 20:06 | -25.47033 | -51.09824 | 9532 ft | 160 kts | 91° |
| 2026-04-14 20:06 | -25.47062 | -51.08591 | 9533 ft | 161 kts | 91° |
| 2026-04-14 20:06 | -25.47096 | -51.07355 | 9536 ft | 160 kts | 91° |
| 2026-04-14 20:07 | -25.47129 | -51.06121 | 9529 ft | 160 kts | 91° |
| 2026-04-14 20:07 | -25.47158 | -51.04892 | 9527 ft | 160 kts | 91° |
| 2026-04-14 20:07 | -25.47188 | -51.03662 | 9530 ft | 160 kts | 91° |
| 2026-04-14 20:07 | -25.47215 | -51.02429 | 9530 ft | 161 kts | 90° |
| 2026-04-14 20:08 | -25.47242 | -51.01192 | 9531 ft | 160 kts | 91° |
| 2026-04-14 20:08 | -25.47272 | -50.99958 | 9528 ft | 160 kts | 91° |
| 2026-04-14 20:08 | -25.47299 | -50.98727 | 9529 ft | 160 kts | 90° |
| 2026-04-14 20:08 | -25.47330 | -50.97496 | 9528 ft | 160 kts | 91° |
| 2026-04-14 20:09 | -25.47358 | -50.96268 | 9524 ft | 160 kts | 91° |
| 2026-04-14 20:09 | -25.47384 | -50.95036 | 9526 ft | 160 kts | 91° |
| 2026-04-14 20:09 | -25.47410 | -50.93805 | 9528 ft | 160 kts | 91° |
| 2026-04-14 20:09 | -25.47439 | -50.92587 | 9524 ft | 160 kts | 91° |
| 2026-04-14 20:10 | -25.47464 | -50.91354 | 9524 ft | 160 kts | 90° |
| 2026-04-14 20:10 | -25.47489 | -50.90124 | 9528 ft | 160 kts | 91° |
| 2026-04-14 20:10 | -25.47520 | -50.88891 | 9528 ft | 160 kts | 91° |
| 2026-04-14 20:10 | -25.47546 | -50.87661 | 9525 ft | 160 kts | 91° |
| 2026-04-14 20:11 | -25.47573 | -50.86434 | 9524 ft | 159 kts | 91° |
| 2026-04-14 20:11 | -25.47602 | -50.85208 | 9528 ft | 159 kts | 91° |
| 2026-04-14 20:11 | -25.47627 | -50.83982 | 9524 ft | 160 kts | 90° |
| 2026-04-14 20:11 | -25.47652 | -50.82752 | 9522 ft | 160 kts | 90° |
| 2026-04-14 20:12 | -25.47680 | -50.81525 | 9523 ft | 160 kts | 91° |
| 2026-04-14 20:12 | -25.47708 | -50.80294 | 9524 ft | 160 kts | 91° |
| 2026-04-14 20:12 | -25.47737 | -50.79067 | 9522 ft | 159 kts | 91° |
| 2026-04-14 20:12 | -25.47761 | -50.77845 | 9520 ft | 159 kts | 91° |
| 2026-04-14 20:13 | -25.47785 | -50.76623 | 9521 ft | 159 kts | 91° |
| 2026-04-14 20:13 | -25.47810 | -50.75402 | 9520 ft | 158 kts | 90° |
| 2026-04-14 20:13 | -25.47828 | -50.74183 | 9523 ft | 159 kts | 91° |
| 2026-04-14 20:13 | -25.47846 | -50.72961 | 9520 ft | 159 kts | 90° |
| 2026-04-14 20:14 | -25.47865 | -50.71739 | 9522 ft | 159 kts | 91° |
| 2026-04-14 20:14 | -25.47882 | -50.70518 | 9524 ft | 159 kts | 91° |
| 2026-04-14 20:14 | -25.47899 | -50.69311 | 9518 ft | 159 kts | 91° |
| 2026-04-14 20:14 | -25.47912 | -50.68091 | 9521 ft | 159 kts | 90° |
| 2026-04-14 20:15 | -25.47926 | -50.66870 | 9517 ft | 159 kts | 91° |
| 2026-04-14 20:15 | -25.47936 | -50.65652 | 9519 ft | 159 kts | 90° |
| 2026-04-14 20:15 | -25.47946 | -50.64428 | 9521 ft | 158 kts | 91° |
| 2026-04-14 20:15 | -25.47956 | -50.63209 | 9518 ft | 158 kts | 91° |
| 2026-04-14 20:16 | -25.47965 | -50.61991 | 9520 ft | 158 kts | 91° |
| 2026-04-14 20:16 | -25.47972 | -50.60775 | 9521 ft | 158 kts | 91° |
| 2026-04-14 20:16 | -25.47979 | -50.59558 | 9520 ft | 158 kts | 90° |
| 2026-04-14 20:16 | -25.47985 | -50.58349 | 9522 ft | 158 kts | 90° |
| 2026-04-14 20:17 | -25.47991 | -50.57133 | 9521 ft | 158 kts | 90° |
| 2026-04-14 20:17 | -25.47997 | -50.55934 | 9521 ft | 158 kts | 91° |
| 2026-04-14 20:17 | -25.48003 | -50.54706 | 9523 ft | 158 kts | 90° |
| 2026-04-14 20:17 | -25.48008 | -50.53506 | 9519 ft | 158 kts | 90° |
| 2026-04-14 20:18 | -25.48014 | -50.52292 | 9522 ft | 158 kts | 91° |
| 2026-04-14 20:18 | -25.48019 | -50.51078 | 9521 ft | 158 kts | 90° |
| 2026-04-14 20:18 | -25.48025 | -50.49861 | 9520 ft | 158 kts | 91° |
| 2026-04-14 20:18 | -25.48031 | -50.48647 | 9519 ft | 158 kts | 90° |
| 2026-04-14 20:19 | -25.48035 | -50.47432 | 9518 ft | 158 kts | 90° |
| 2026-04-14 20:19 | -25.48039 | -50.46221 | 9519 ft | 158 kts | 90° |
| 2026-04-14 20:19 | -25.48055 | -50.45002 | 9518 ft | 158 kts | 94° |
| 2026-04-14 20:19 | -25.48154 | -50.43795 | 9520 ft | 158 kts | 95° |
| 2026-04-14 20:20 | -25.48255 | -50.42585 | 9517 ft | 158 kts | 96° |
| 2026-04-14 20:20 | -25.48355 | -50.41374 | 9519 ft | 158 kts | 95° |
| 2026-04-14 20:20 | -25.48456 | -50.40166 | 9522 ft | 158 kts | 95° |
| 2026-04-14 20:20 | -25.48556 | -50.38957 | 9521 ft | 158 kts | 95° |
| 2026-04-14 20:21 | -25.48657 | -50.37748 | 9523 ft | 158 kts | 95° |
| 2026-04-14 20:21 | -25.48757 | -50.36535 | 9518 ft | 158 kts | 95° |
| 2026-04-14 20:21 | -25.48857 | -50.35323 | 9519 ft | 158 kts | 95° |
| 2026-04-14 20:21 | -25.48958 | -50.34111 | 9520 ft | 158 kts | 95° |
| 2026-04-14 20:22 | -25.49059 | -50.32898 | 9524 ft | 158 kts | 96° |
| 2026-04-14 20:22 | -25.49159 | -50.31688 | 9523 ft | 158 kts | 95° |
| 2026-04-14 20:22 | -25.49259 | -50.30493 | 9520 ft | 158 kts | 95° |
| 2026-04-14 20:22 | -25.49359 | -50.29281 | 9522 ft | 158 kts | 95° |
| 2026-04-14 20:23 | -25.49459 | -50.28071 | 9523 ft | 158 kts | 96° |
| 2026-04-14 20:23 | -25.49559 | -50.26862 | 9520 ft | 158 kts | 95° |
| 2026-04-14 20:23 | -25.49660 | -50.25652 | 9520 ft | 158 kts | 95° |
| 2026-04-14 20:23 | -25.49759 | -50.24440 | 9521 ft | 158 kts | 95° |
| 2026-04-14 20:24 | -25.49859 | -50.23231 | 9521 ft | 158 kts | 95° |
| 2026-04-14 20:24 | -25.49958 | -50.22022 | 9522 ft | 158 kts | 95° |
| 2026-04-14 20:24 | -25.50056 | -50.20812 | 9521 ft | 158 kts | 95° |
| 2026-04-14 20:24 | -25.50153 | -50.19603 | 9524 ft | 158 kts | 95° |
| 2026-04-14 20:25 | -25.50248 | -50.18392 | 9522 ft | 158 kts | 95° |
| 2026-04-14 20:25 | -25.50344 | -50.17183 | 9522 ft | 158 kts | 95° |
| 2026-04-14 20:25 | -25.50440 | -50.15975 | 9524 ft | 158 kts | 95° |
| 2026-04-14 20:25 | -25.50536 | -50.14763 | 9521 ft | 158 kts | 95° |
| 2026-04-14 20:26 | -25.50631 | -50.13553 | 9526 ft | 158 kts | 95° |
| 2026-04-14 20:26 | -25.50724 | -50.12341 | 9528 ft | 158 kts | 95° |
| 2026-04-14 20:26 | -25.50815 | -50.11131 | 9523 ft | 158 kts | 95° |
| 2026-04-14 20:26 | -25.50907 | -50.09921 | 9526 ft | 158 kts | 95° |
| 2026-04-14 20:27 | -25.50999 | -50.08709 | 9524 ft | 158 kts | 95° |
| 2026-04-14 20:27 | -25.51088 | -50.07498 | 9526 ft | 158 kts | 95° |
| 2026-04-14 20:27 | -25.51178 | -50.06288 | 9528 ft | 158 kts | 95° |
| 2026-04-14 20:27 | -25.51268 | -50.05077 | 9530 ft | 158 kts | 95° |
| 2026-04-14 20:28 | -25.51358 | -50.03869 | 9527 ft | 158 kts | 95° |
| 2026-04-14 20:28 | -25.51459 | -50.02658 | 9529 ft | 158 kts | 97° |
| 2026-04-14 20:28 | -25.51568 | -50.01448 | 9526 ft | 158 kts | 96° |
| 2026-04-14 20:28 | -25.51677 | -50.00254 | 9532 ft | 158 kts | 96° |
| 2026-04-14 20:29 | -25.51849 | -49.99057 | 9534 ft | 158 kts | 104° |
| 2026-04-14 20:29 | -25.52139 | -49.97887 | 9535 ft | 158 kts | 109° |
| 2026-04-14 20:29 | -25.52493 | -49.96739 | 9532 ft | 158 kts | 109° |
| 2026-04-14 20:29 | -25.52861 | -49.95594 | 9537 ft | 157 kts | 110° |
| 2026-04-14 20:30 | -25.53245 | -49.94454 | 9478 ft | 161 kts | 111° |
| 2026-04-14 20:30 | -25.53654 | -49.93276 | 9334 ft | 167 kts | 111° |
| 2026-04-14 20:30 | -25.54074 | -49.92061 | 9190 ft | 170 kts | 111° |
| 2026-04-14 20:30 | -25.54502 | -49.90834 | 9044 ft | 171 kts | 111° |
| 2026-04-14 20:31 | -25.54933 | -49.89597 | 8901 ft | 172 kts | 111° |
| 2026-04-14 20:31 | -25.55368 | -49.88358 | 8755 ft | 173 kts | 111° |
| 2026-04-14 20:31 | -25.55804 | -49.87117 | 8606 ft | 173 kts | 111° |
| 2026-04-14 20:31 | -25.56242 | -49.85878 | 8460 ft | 173 kts | 111° |
| 2026-04-14 20:32 | -25.56683 | -49.84640 | 8308 ft | 173 kts | 111° |
| 2026-04-14 20:32 | -25.57134 | -49.83410 | 8162 ft | 172 kts | 112° |
| 2026-04-14 20:32 | -25.57573 | -49.82179 | 8013 ft | 171 kts | 111° |
| 2026-04-14 20:32 | -25.58015 | -49.80953 | 7878 ft | 171 kts | 111° |
| 2026-04-14 20:33 | -25.58457 | -49.79735 | 7736 ft | 170 kts | 111° |
| 2026-04-14 20:33 | -25.58898 | -49.78516 | 7585 ft | 170 kts | 111° |
| 2026-04-14 20:33 | -25.59336 | -49.77315 | 7443 ft | 170 kts | 111° |
| 2026-04-14 20:34 | -25.60235 | -49.74884 | 7161 ft | 170 kts | 111° |
| 2026-04-14 20:34 | -25.60675 | -49.73676 | 7017 ft | 168 kts | 111° |
| 2026-04-14 20:34 | -25.61118 | -49.72473 | 6883 ft | 168 kts | 111° |
| 2026-04-14 20:34 | -25.61580 | -49.71332 | 6743 ft | 168 kts | 113° |
| 2026-04-14 20:35 | -25.62060 | -49.70150 | 6599 ft | 168 kts | 114° |
| 2026-04-14 20:35 | -25.62541 | -49.68972 | 6455 ft | 168 kts | 112° |
| 2026-04-14 20:35 | -25.63021 | -49.67793 | 6310 ft | 168 kts | 113° |
| 2026-04-14 20:35 | -25.63510 | -49.66621 | 6104 ft | 167 kts | 113° |
| 2026-04-14 20:36 | -25.63991 | -49.65457 | 5917 ft | 167 kts | 113° |
| 2026-04-14 20:36 | -25.64479 | -49.64280 | 5719 ft | 169 kts | 113° |
| 2026-04-14 20:36 | -25.64972 | -49.63107 | 5525 ft | 167 kts | 113° |
| 2026-04-14 20:36 | -25.65461 | -49.61946 | 5417 ft | 163 kts | 113° |
| 2026-04-14 20:37 | -25.65937 | -49.60831 | 5409 ft | 157 kts | 114° |
| 2026-04-14 20:37 | -25.66383 | -49.59739 | 5404 ft | 154 kts | 113° |
| 2026-04-14 20:37 | -25.66831 | -49.58659 | 5410 ft | 154 kts | 114° |
| 2026-04-14 20:37 | -25.67273 | -49.57593 | 5409 ft | 153 kts | 114° |
| 2026-04-14 20:38 | -25.67715 | -49.56534 | 5414 ft | 151 kts | 113° |
| 2026-04-14 20:38 | -25.68159 | -49.55472 | 5412 ft | 152 kts | 112° |
| 2026-04-14 20:38 | -25.68564 | -49.54394 | 5407 ft | 151 kts | 109° |
| 2026-04-14 20:38 | -25.68927 | -49.53299 | 5412 ft | 151 kts | 109° |
| 2026-04-14 20:39 | -25.69292 | -49.52208 | 5413 ft | 150 kts | 109° |
| 2026-04-14 20:39 | -25.69658 | -49.51126 | 5420 ft | 150 kts | 109° |
| 2026-04-14 20:39 | -25.69898 | -49.50406 | 5415 ft | 150 kts | 109° |
| 2026-04-14 20:39 | -25.70154 | -49.49638 | 5422 ft | 150 kts | 109° |
| 2026-04-14 20:40 | -25.70517 | -49.48553 | 5423 ft | 151 kts | 109° |
| 2026-04-14 20:40 | -25.70894 | -49.47466 | 5426 ft | 151 kts | 111° |
| 2026-04-14 20:40 | -25.71304 | -49.46399 | 5432 ft | 150 kts | 112° |
| 2026-04-14 20:40 | -25.71713 | -49.45326 | 5432 ft | 151 kts | 111° |
| 2026-04-14 20:41 | -25.72128 | -49.44272 | 5436 ft | 150 kts | 112° |
| 2026-04-14 20:41 | -25.72529 | -49.43206 | 5437 ft | 150 kts | 111° |
| 2026-04-14 20:41 | -25.72940 | -49.42141 | 5437 ft | 150 kts | 112° |
| 2026-04-14 20:41 | -25.73354 | -49.41085 | 5437 ft | 149 kts | 112° |
| 2026-04-14 20:42 | -25.73766 | -49.40038 | 5437 ft | 148 kts | 112° |
| 2026-04-14 20:42 | -25.74175 | -49.38995 | 5441 ft | 148 kts | 112° |
| 2026-04-14 20:42 | -25.74877 | -49.37266 | 5446 ft | 149 kts | 112° |
| 2026-04-14 20:43 | -25.75369 | -49.35997 | 5448 ft | 149 kts | 112° |
| 2026-04-14 20:43 | -25.75785 | -49.34944 | 5445 ft | 149 kts | 112° |
| 2026-04-14 20:43 | -25.76201 | -49.33890 | 5444 ft | 148 kts | 112° |
| 2026-04-14 20:43 | -25.76603 | -49.32835 | 5447 ft | 148 kts | 110° |
| 2026-04-14 20:44 | -25.76976 | -49.31774 | 5447 ft | 148 kts | 110° |
| 2026-04-14 20:44 | -25.77353 | -49.30716 | 5449 ft | 147 kts | 110° |
| 2026-04-14 20:44 | -25.77721 | -49.29671 | 5448 ft | 148 kts | 110° |
| 2026-04-14 20:44 | -25.78102 | -49.28607 | 5449 ft | 149 kts | 110° |
| 2026-04-14 20:45 | -25.78480 | -49.27544 | 5448 ft | 148 kts | 110° |
| 2026-04-14 20:45 | -25.78852 | -49.26493 | 5455 ft | 146 kts | 110° |
| 2026-04-14 20:45 | -25.79225 | -49.25435 | 5454 ft | 147 kts | 110° |
| 2026-04-14 20:45 | -25.79583 | -49.24375 | 5457 ft | 148 kts | 109° |
| 2026-04-14 20:46 | -25.79954 | -49.23301 | 5462 ft | 150 kts | 110° |
| 2026-04-14 20:46 | -25.80324 | -49.22216 | 5460 ft | 150 kts | 110° |
| 2026-04-14 20:46 | -25.80684 | -49.21134 | 5461 ft | 149 kts | 110° |
| 2026-04-14 20:46 | -25.81058 | -49.20057 | 5460 ft | 149 kts | 110° |
| 2026-04-14 20:47 | -25.81438 | -49.18984 | 5458 ft | 149 kts | 111° |
| 2026-04-14 20:47 | -25.81803 | -49.17913 | 5459 ft | 149 kts | 110° |
| 2026-04-14 20:47 | -25.82170 | -49.16841 | 5457 ft | 148 kts | 110° |
| 2026-04-14 20:47 | -25.82545 | -49.15770 | 5457 ft | 149 kts | 110° |
| 2026-04-14 20:48 | -25.82921 | -49.14699 | 5454 ft | 149 kts | 110° |
| 2026-04-14 20:48 | -25.83297 | -49.13629 | 5452 ft | 148 kts | 110° |
| 2026-04-14 20:48 | -25.83660 | -49.12557 | 5452 ft | 148 kts | 109° |
| 2026-04-14 20:48 | -25.84029 | -49.11484 | 5448 ft | 149 kts | 110° |
| 2026-04-14 20:49 | -25.84400 | -49.10413 | 5449 ft | 149 kts | 110° |
| 2026-04-14 20:49 | -25.84765 | -49.09337 | 5447 ft | 149 kts | 109° |
| 2026-04-14 20:49 | -25.85135 | -49.08267 | 5449 ft | 149 kts | 110° |
| 2026-04-14 20:49 | -25.85515 | -49.07195 | 5449 ft | 150 kts | 110° |
| 2026-04-14 20:50 | -25.85896 | -49.06130 | 5441 ft | 148 kts | 110° |
| 2026-04-14 20:50 | -25.86197 | -49.05055 | 5441 ft | 145 kts | 96° |
| 2026-04-14 20:50 | -25.85925 | -49.04005 | 5437 ft | 146 kts | 58° |
| 2026-04-14 20:50 | -25.85324 | -49.03095 | 5450 ft | 146 kts | 57° |
| 2026-04-14 20:51 | -25.84753 | -49.02150 | 5489 ft | 148 kts | 58° |
| 2026-04-14 20:51 | -25.84206 | -49.01281 | 5876 ft | 129 kts | 57° |
| 2026-04-14 20:51 | -25.83691 | -49.00462 | 6093 ft | 131 kts | 58° |
| 2026-04-14 20:51 | -25.83184 | -48.99642 | 6315 ft | 130 kts | 57° |
| 2026-04-14 20:52 | -25.82666 | -48.98814 | 6526 ft | 131 kts | 58° |
| 2026-04-14 20:52 | -25.82148 | -48.97981 | 6700 ft | 131 kts | 57° |
| 2026-04-14 20:52 | -25.81630 | -48.97147 | 6903 ft | 132 kts | 57° |
| 2026-04-14 20:52 | -25.81105 | -48.96304 | 7069 ft | 133 kts | 58° |
| 2026-04-14 20:53 | -25.80579 | -48.95463 | 7259 ft | 133 kts | 57° |
| 2026-04-14 20:53 | -25.80051 | -48.94614 | 7422 ft | 134 kts | 58° |
| 2026-04-14 20:53 | -25.79498 | -48.93727 | 7449 ft | 145 kts | 57° |
| 2026-04-14 20:53 | -25.78914 | -48.92785 | 7457 ft | 150 kts | 58° |
| 2026-04-14 20:54 | -25.78314 | -48.91822 | 7453 ft | 154 kts | 57° |
| 2026-04-14 20:54 | -25.77702 | -48.90842 | 7455 ft | 155 kts | 57° |
| 2026-04-14 20:54 | -25.77084 | -48.89851 | 7446 ft | 157 kts | 57° |
| 2026-04-14 20:54 | -25.76472 | -48.88873 | 7451 ft | 154 kts | 57° |
| 2026-04-14 20:55 | -25.75872 | -48.87913 | 7443 ft | 152 kts | 57° |
| 2026-04-14 20:55 | -25.75271 | -48.86948 | 7441 ft | 151 kts | 57° |
| 2026-04-14 20:55 | -25.74665 | -48.85981 | 7443 ft | 151 kts | 57° |
| 2026-04-14 20:55 | -25.74073 | -48.85031 | 7439 ft | 152 kts | 57° |
| 2026-04-14 20:56 | -25.73470 | -48.84066 | 7436 ft | 152 kts | 57° |
| 2026-04-14 20:56 | -25.72867 | -48.83101 | 7439 ft | 153 kts | 57° |
| 2026-04-14 20:56 | -25.72262 | -48.82133 | 7432 ft | 153 kts | 57° |
| 2026-04-14 20:56 | -25.71652 | -48.81159 | 7440 ft | 154 kts | 57° |
| 2026-04-14 20:57 | -25.71042 | -48.80178 | 7437 ft | 154 kts | 57° |
| 2026-04-14 20:57 | -25.70428 | -48.79201 | 7406 ft | 156 kts | 57° |
| 2026-04-14 20:57 | -25.69786 | -48.78175 | 7175 ft | 167 kts | 57° |
| 2026-04-14 20:57 | -25.69114 | -48.77092 | 6915 ft | 173 kts | 57° |
| 2026-04-14 20:58 | -25.68420 | -48.75977 | 6637 ft | 177 kts | 57° |
| 2026-04-14 20:58 | -25.67953 | -48.75234 | 6453 ft | 178 kts | 57° |
| 2026-04-14 20:58 | -25.67017 | -48.73737 | 6078 ft | 178 kts | 57° |
| 2026-04-14 20:58 | -25.66309 | -48.72612 | 5800 ft | 178 kts | 57° |
| 2026-04-14 20:59 | -25.65880 | -48.71926 | 5636 ft | 178 kts | 57° |
| 2026-04-14 20:59 | -25.65401 | -48.71164 | 5444 ft | 178 kts | 57° |
| 2026-04-14 20:59 | -25.64697 | -48.70039 | 5177 ft | 177 kts | 57° |
| 2026-04-14 21:00 | -25.63764 | -48.68562 | 4809 ft | 178 kts | 57° |
| 2026-04-14 21:00 | -25.63293 | -48.67798 | 4618 ft | 178 kts | 57° |
| 2026-04-14 21:00 | -25.62590 | -48.66669 | 4337 ft | 178 kts | 57° |
| 2026-04-14 21:00 | -25.61884 | -48.65549 | 4066 ft | 178 kts | 57° |
| 2026-04-14 21:01 | -25.61171 | -48.64422 | 3784 ft | 179 kts | 57° |
| 2026-04-14 21:01 | -25.60466 | -48.63287 | 3513 ft | 178 kts | 57° |
| 2026-04-14 21:01 | -25.59759 | -48.62164 | 3235 ft | 177 kts | 57° |
| 2026-04-14 21:01 | -25.59056 | -48.61048 | 2957 ft | 176 kts | 58° |
| 2026-04-14 21:02 | -25.58376 | -48.59962 | 2689 ft | 166 kts | 58° |
| 2026-04-14 21:02 | -25.57710 | -48.58957 | 2406 ft | 159 kts | 55° |
| 2026-04-14 21:02 | -25.57080 | -48.57973 | 2120 ft | 154 kts | 64° |
| 2026-04-14 21:02 | -25.57028 | -48.56840 | 1842 ft | 150 kts | 112° |
| 2026-04-14 21:03 | -25.57712 | -48.56020 | 1652 ft | 145 kts | 138° |
| 2026-04-14 21:03 | -25.58429 | -48.55290 | 1549 ft | 136 kts | 123° |
| 2026-04-14 21:03 | -25.58534 | -48.54289 | 1455 ft | 136 kts | 70° |
| 2026-04-14 21:03 | -25.57879 | -48.53544 | 1405 ft | 138 kts | 38° |
| 2026-04-14 21:04 | -25.57115 | -48.52890 | 1357 ft | 138 kts | 41° |
| 2026-04-14 21:04 | -25.56363 | -48.52241 | 1312 ft | 137 kts | 40° |
| 2026-04-14 21:04 | -25.55518 | -48.51794 | 1255 ft | 140 kts | 7° |
| 2026-04-14 21:04 | -25.54637 | -48.52227 | 1199 ft | 144 kts | 316° |
| 2026-04-14 21:05 | -25.53951 | -48.53025 | 1182 ft | 143 kts | 318° |
| 2026-04-14 21:05 | -25.53248 | -48.53808 | 1160 ft | 144 kts | 316° |
| 2026-04-14 21:05 | -25.52547 | -48.54610 | 1138 ft | 145 kts | 316° |
| 2026-04-14 21:05 | -25.51842 | -48.55395 | 1119 ft | 142 kts | 315° |
| 2026-04-14 21:06 | -25.51503 | -48.56380 | 1058 ft | 145 kts | 265° |
| 2026-04-14 21:06 | -25.51962 | -48.57270 | 1032 ft | 124 kts | 217° |
| 2026-04-14 21:06 | -25.52574 | -48.57876 | 1000 ft | 117 kts | 220° |
| 2026-04-14 21:06 | -25.53158 | -48.58502 | 902 ft | 117 kts | 219° |
| 2026-04-14 21:07 | -25.53839 | -48.58999 | 737 ft | 118 kts | 189° |
| 2026-04-14 21:07 | -25.54538 | -48.58695 | 559 ft | 112 kts | 128° |
| 2026-04-14 21:07 | -25.54995 | -48.58060 | 531 ft | 101 kts | 132° |
| 2026-04-14 21:07 | -25.55453 | -48.57482 | 521 ft | 99 kts | 130° |
| 2026-04-14 21:08 | -25.55895 | -48.56908 | 513 ft | 94 kts | 128° |
| 2026-04-14 21:08 | -25.56241 | -48.56327 | 509 ft | 92 kts | 99° |
| 2026-04-14 21:08 | -25.56052 | -48.55627 | 519 ft | 97 kts | 77° |
| 2026-04-14 21:08 | -25.55565 | -48.55083 | 494 ft | 104 kts | 40° |
| 2026-04-14 21:09 | -25.55066 | -48.54466 | 311 ft | 107 kts | 56° |
| 2026-04-14 21:09 | -25.54610 | -48.53864 | 152 ft | 97 kts | 50° |
| 2026-04-14 21:09 | -25.54200 | -48.53348 | 60 ft | 80 kts | 50° |
| 2026-04-14 21:09 | -25.53974 | -48.53058 | 56 ft | 14 kts | 49° |
| 2026-04-14 21:10 | -25.53903 | -48.52972 | 59 ft | 7 kts | 40° |
| 2026-04-14 21:10 | -25.53853 | -48.52994 | 58 ft | 12 kts | 318° |
| 2026-04-14 21:10 | -25.53821 | -48.53029 | 56 ft | 6 kts | 316° |
| 2026-04-14 21:10 | -25.53815 | -48.53035 | 58 ft | 0 kts | 316° |